Saba, Netherlands Antilles
Current Conditions -  °F | °C
As of 2:00 AM on Wednesday 28 Jan 2015 (Local Time) from TNCM Reporting Station
Few Clouds Few Clouds  
Wind Chill: 79°   Ceiling: Unl
Heat Index: 81°   Visibility: 6mi
Dew Point: 70°   Wind: 7mph
Humidity: 74%   Direction: 110°ESE
Pressure: 29.97"   Gusts: NA
Location:  17.64°N, 63.23°W
Report Text: TNCM 280600Z 11006KT 9999 FEW020 26/21 Q1015 A2999
Loading
Personal Weather Stations






























Interactive Weather Map New forecast layout! Learn more

10-Day Weather Forecast

Advertisements
Track Severe Weather on mobile